createdAt,value
2023-04-14T00:00:19.221Z,9.76
2023-04-14T00:05:19.277Z,9.78
2023-04-14T00:10:19.088Z,9.60
2023-04-14T00:15:19.022Z,9.75
2023-04-14T00:20:18.954Z,9.71
2023-04-14T00:25:18.935Z,9.58
2023-04-14T00:30:18.841Z,9.67
2023-04-14T00:35:18.762Z,9.61
2023-04-14T00:40:18.702Z,9.58
2023-04-14T00:45:18.658Z,9.50
2023-04-14T00:50:18.556Z,9.45
2023-04-14T00:55:18.507Z,9.40
2023-04-14T01:00:18.454Z,9.34
2023-04-14T01:05:18.401Z,9.30
2023-04-14T01:10:18.301Z,9.23
2023-04-14T01:15:18.240Z,9.21
2023-04-14T01:20:18.162Z,9.15
2023-04-14T01:25:18.104Z,9.20
2023-04-14T01:30:18.027Z,9.18
2023-04-14T01:35:17.959Z,9.10
2023-04-14T01:40:17.893Z,8.96
2023-04-14T01:45:17.875Z,8.91
2023-04-14T01:50:17.771Z,8.88
2023-04-14T01:55:17.702Z,8.91
2023-04-14T02:00:17.658Z,8.86
2023-04-14T02:05:17.590Z,8.90
2023-04-14T02:10:17.500Z,8.88
2023-04-14T02:15:17.431Z,8.88
2023-04-14T02:20:17.357Z,8.93
2023-04-14T02:25:17.322Z,8.91
2023-04-14T02:30:17.215Z,8.90
2023-04-14T02:35:17.168Z,8.97
2023-04-14T02:40:17.083Z,8.93
2023-04-14T02:45:17.030Z,8.83
2023-04-14T02:50:16.958Z,8.81
2023-04-14T02:55:16.896Z,8.91
2023-04-14T03:00:16.872Z,9.05
2023-04-14T03:05:16.778Z,8.99
2023-04-14T03:10:16.681Z,8.86
2023-04-14T03:15:16.625Z,8.71
2023-04-14T03:20:16.580Z,8.90
2023-04-14T03:25:16.492Z,9.21
2023-04-14T03:30:16.498Z,8.83
2023-04-14T03:35:16.363Z,8.78
2023-04-14T03:40:16.285Z,8.79
2023-04-14T03:45:16.213Z,8.60
2023-04-14T03:50:16.145Z,8.75
2023-04-14T03:55:16.078Z,8.69
2023-04-14T04:00:16.024Z,8.68
2023-04-14T04:05:15.957Z,8.62
2023-04-14T04:10:15.901Z,8.53
2023-04-14T04:15:15.812Z,8.30
2023-04-14T04:20:15.755Z,8.26
2023-04-14T04:25:15.733Z,8.21
2023-04-14T04:30:15.609Z,8.17
2023-04-14T04:35:15.548Z,8.35
2023-04-14T04:40:15.480Z,8.21
2023-04-14T04:45:15.422Z,8.25
2023-04-14T04:50:16.047Z,8.12
2023-04-14T04:55:15.279Z,8.14
2023-04-14T05:00:15.202Z,8.47
2023-04-14T05:05:15.146Z,8.71
2023-04-14T05:10:15.085Z,8.72
2023-04-14T05:15:15.014Z,8.78
2023-04-14T05:20:14.942Z,8.79
2023-04-14T05:25:14.907Z,8.84
2023-04-14T05:30:14.806Z,8.94
2023-04-14T05:35:14.762Z,8.83
2023-04-14T05:40:14.688Z,8.93
2023-04-14T05:45:14.634Z,8.94
2023-04-14T05:50:14.553Z,9.06
2023-04-14T05:55:14.484Z,9.02
2023-04-14T06:00:14.414Z,8.79
2023-04-14T06:05:14.395Z,8.71
2023-04-14T06:10:14.267Z,8.65
2023-04-14T06:15:14.237Z,8.60
2023-04-14T06:20:14.146Z,8.55
2023-04-14T06:25:14.066Z,8.57
2023-04-14T06:30:14.045Z,8.71
2023-04-14T06:35:25.764Z,9.18
2023-04-14T06:40:14.879Z,9.25
2023-04-14T06:45:14.228Z,9.31
2023-04-14T06:50:13.751Z,9.39
2023-04-14T06:55:13.707Z,9.24
2023-04-14T07:00:13.618Z,9.40
2023-04-14T07:05:13.696Z,9.52
2023-04-14T07:10:13.501Z,9.75
2023-04-14T07:15:13.410Z,9.76
2023-04-14T07:20:13.339Z,9.75
2023-04-14T07:25:13.408Z,10.14
2023-04-14T07:30:13.445Z,10.01
2023-04-14T07:35:13.209Z,9.97
2023-04-14T07:40:13.084Z,10.06
2023-04-14T07:45:13.024Z,9.96
2023-04-14T07:50:12.955Z,9.85
2023-04-14T07:55:12.897Z,9.94
2023-04-14T08:00:12.830Z,10.24
2023-04-14T08:05:12.802Z,10.04
2023-04-14T08:10:12.700Z,9.66
2023-04-14T08:15:12.643Z,9.53
2023-04-14T08:20:12.576Z,9.52
2023-04-14T08:25:12.488Z,9.66
2023-04-14T08:30:12.413Z,9.75
2023-04-14T08:35:39.239Z,9.99
2023-04-14T08:40:13.375Z,10.42
2023-04-14T08:45:12.210Z,10.26
2023-04-14T08:50:12.145Z,10.21
2023-04-14T08:55:12.093Z,10.10
2023-04-14T09:00:12.009Z,9.83
2023-04-14T09:05:11.963Z,10.22
2023-04-14T09:10:11.901Z,10.33
2023-04-14T09:15:11.813Z,10.12
2023-04-14T09:20:35.181Z,10.22
2023-04-14T09:25:12.797Z,10.15
2023-04-14T09:30:11.637Z,10.07
2023-04-14T09:35:11.573Z,10.26
2023-04-14T09:40:11.458Z,10.25
2023-04-14T09:45:11.404Z,10.28
2023-04-14T09:50:11.364Z,10.14
2023-04-14T09:55:11.276Z,10.22
2023-04-14T10:00:11.203Z,10.00
2023-04-14T10:05:11.195Z,9.86
2023-04-14T10:10:11.051Z,10.03
2023-04-14T10:15:10.997Z,9.96
2023-04-14T10:20:10.915Z,9.97
2023-04-14T10:25:10.865Z,10.06
2023-04-14T10:30:10.797Z,9.76
2023-04-14T10:35:10.769Z,9.82
2023-04-14T10:40:10.668Z,9.97
2023-04-14T10:45:10.591Z,10.17
2023-04-14T10:50:10.517Z,10.43
2023-04-14T10:55:10.458Z,10.15
2023-04-14T11:00:10.385Z,10.46
2023-04-14T11:05:10.349Z,10.12
2023-04-14T11:10:10.276Z,10.18
2023-04-14T11:15:10.184Z,9.94
2023-04-14T11:20:10.142Z,9.97
2023-04-14T11:25:10.057Z,9.76
2023-04-14T11:30:10.006Z,9.81
2023-04-14T11:35:09.934Z,9.79
2023-04-14T11:40:09.848Z,9.89
2023-04-14T11:45:09.821Z,9.68
2023-04-14T11:50:09.749Z,9.60
2023-04-14T11:55:09.668Z,9.94
2023-04-14T12:00:09.629Z,9.78
2023-04-14T12:05:09.757Z,9.88
2023-04-14T12:10:09.463Z,9.73
2023-04-14T12:15:09.428Z,9.79
2023-04-14T12:20:09.342Z,9.88
2023-04-14T12:25:09.271Z,10.15
2023-04-14T12:30:09.217Z,10.24
2023-04-14T12:35:09.143Z,10.22
2023-04-14T12:40:10.129Z,10.56
2023-04-14T12:45:08.999Z,10.40
2023-04-14T12:50:08.926Z,10.19
2023-04-14T12:55:08.872Z,10.19
2023-04-14T13:00:08.784Z,10.03
2023-04-14T13:05:08.727Z,9.79
2023-04-14T13:10:08.645Z,9.86
2023-04-14T13:15:08.577Z,9.88
2023-04-14T13:20:09.537Z,9.89
2023-04-14T13:25:08.474Z,9.86
2023-04-14T13:30:08.380Z,9.67
2023-04-14T13:35:08.321Z,9.70
2023-04-14T13:40:08.251Z,9.83
2023-04-14T13:45:08.200Z,10.04
2023-04-14T13:50:08.132Z,10.36
2023-04-14T13:55:08.085Z,10.30
2023-04-14T14:00:07.997Z,10.51
2023-04-14T14:05:07.932Z,10.59
2023-04-14T14:10:07.881Z,10.88
2023-04-14T14:15:07.892Z,10.84
2023-04-14T14:20:07.739Z,10.62
2023-04-14T14:25:19.578Z,10.28
2023-04-14T14:30:08.667Z,10.28
2023-04-14T14:35:07.520Z,10.10
2023-04-14T14:40:07.505Z,10.10
2023-04-14T14:45:07.396Z,9.94
2023-04-14T14:50:08.645Z,10.01
2023-04-14T14:55:07.214Z,9.91
2023-04-14T15:00:07.166Z,9.83
2023-04-14T15:05:07.120Z,9.81
2023-04-14T15:10:07.070Z,9.89
2023-04-14T15:15:07.014Z,9.91
2023-04-14T15:20:06.993Z,9.89
2023-04-14T15:25:06.887Z,9.81
2023-04-14T15:30:06.907Z,9.93
2023-04-14T15:35:06.771Z,10.15
2023-04-14T15:40:06.700Z,10.09
2023-04-14T15:45:06.639Z,9.96
2023-04-14T15:50:09.198Z,10.01
2023-04-14T15:55:06.533Z,9.89
2023-04-14T16:00:06.435Z,9.76
2023-04-14T16:05:06.438Z,9.86
2023-04-14T16:10:06.317Z,9.85
2023-04-14T16:15:06.249Z,9.88
2023-04-14T16:20:06.198Z,9.70
2023-04-14T16:25:06.117Z,9.63
2023-04-14T16:30:06.046Z,9.63
2023-04-14T16:35:05.993Z,9.66
2023-04-14T16:40:05.932Z,9.86
2023-04-14T16:45:05.863Z,10.09
2023-04-14T16:50:05.813Z,9.96
2023-04-14T16:55:05.746Z,9.73
2023-04-14T17:00:05.645Z,9.60
2023-04-14T17:05:05.736Z,9.53
2023-04-14T17:10:05.516Z,9.70
2023-04-14T17:15:05.434Z,9.56
2023-04-14T17:20:05.383Z,9.52
2023-04-14T17:25:05.300Z,9.42
2023-04-14T17:30:05.233Z,9.38
2023-04-14T17:35:05.172Z,9.39
2023-04-14T17:40:05.132Z,9.49
2023-04-14T17:45:05.046Z,9.49
2023-04-14T17:50:05.010Z,9.45
2023-04-14T17:55:04.968Z,9.40
2023-04-14T18:00:04.845Z,9.42
2023-04-14T18:05:04.760Z,9.43
2023-04-14T18:10:04.702Z,9.40
2023-04-14T18:15:04.623Z,9.34
2023-04-14T18:20:04.568Z,9.46
2023-04-14T18:25:04.500Z,9.32
2023-04-14T18:30:04.494Z,9.27
2023-04-14T18:35:04.357Z,9.20
2023-04-14T18:40:04.309Z,9.23
2023-04-14T18:45:04.239Z,9.21
2023-04-14T18:50:04.173Z,9.09
2023-04-14T18:55:04.090Z,8.96
2023-04-14T19:00:04.045Z,8.94
2023-04-14T19:05:04.023Z,9.13
2023-04-14T19:10:03.906Z,9.23
2023-04-14T19:15:03.829Z,9.13
2023-04-14T19:20:03.759Z,8.96
2023-04-14T19:25:03.687Z,8.96
2023-04-14T19:30:03.626Z,8.99
2023-04-14T19:35:03.569Z,8.90
2023-04-14T19:40:03.499Z,8.99
2023-04-14T19:45:03.440Z,8.97
2023-04-14T19:50:03.364Z,8.96
2023-04-14T19:55:03.304Z,8.86
2023-04-14T20:00:03.220Z,8.94
2023-04-14T20:05:03.190Z,8.97
2023-04-14T20:10:03.121Z,8.93
2023-04-14T20:15:03.135Z,9.06
2023-04-14T20:20:02.957Z,9.06
2023-04-14T20:25:02.914Z,8.97
2023-04-14T20:30:02.821Z,9.16
2023-04-14T20:35:02.811Z,9.02
2023-04-14T20:40:02.719Z,8.94
2023-04-14T20:45:02.636Z,8.83
2023-04-14T20:50:02.565Z,8.84
2023-04-14T20:55:02.518Z,8.84
2023-04-14T21:00:02.441Z,8.84
2023-04-14T21:05:02.344Z,8.97
2023-04-14T21:10:02.337Z,8.93
2023-04-14T21:15:47.474Z,8.83
2023-04-14T21:20:03.196Z,8.72
2023-04-14T21:25:02.115Z,8.71
2023-04-14T21:30:02.035Z,8.71
2023-04-14T21:35:01.942Z,8.81
2023-04-14T21:40:01.907Z,8.83
2023-04-14T21:45:01.820Z,8.79
2023-04-14T21:50:01.776Z,8.81
2023-04-14T21:55:01.715Z,8.75
2023-04-14T22:00:01.665Z,8.71
2023-04-14T22:05:01.546Z,8.68
2023-04-14T22:10:01.525Z,8.73
2023-04-14T22:15:01.419Z,8.75
2023-04-14T22:20:01.413Z,8.62
2023-04-14T22:25:01.280Z,8.65
2023-04-14T22:30:01.209Z,8.62
2023-04-14T22:35:01.137Z,8.66
2023-04-14T22:40:01.105Z,8.78
2023-04-14T22:45:01.078Z,8.75
2023-04-14T22:50:00.943Z,8.91
2023-04-14T22:55:00.860Z,8.76
2023-04-14T23:00:00.878Z,8.72
2023-04-14T23:05:00.747Z,8.71
2023-04-14T23:10:00.677Z,8.65
2023-04-14T23:15:00.608Z,8.66
2023-04-14T23:20:00.544Z,8.65
2023-04-14T23:25:00.478Z,8.55
2023-04-14T23:30:00.420Z,8.55
2023-04-14T23:35:00.342Z,8.55
2023-04-14T23:40:00.306Z,8.65
2023-04-14T23:45:00.257Z,8.58
2023-04-14T23:50:00.220Z,8.53
2023-04-14T23:55:00.128Z,8.50
